createdAt,value
2023-04-06T00:01:34.539Z,4.10
2023-04-06T00:04:04.375Z,4.11
2023-04-06T00:06:34.599Z,4.13
2023-04-06T00:09:04.137Z,4.15
2023-04-06T00:11:33.437Z,4.09
2023-04-06T00:14:02.563Z,4.06
2023-04-06T00:16:31.979Z,4.02
2023-04-06T00:19:01.900Z,4.02
2023-04-06T00:21:32.744Z,4.03
2023-04-06T00:24:01.717Z,4.06
2023-04-06T00:26:30.777Z,4.07
2023-04-06T00:29:00.734Z,4.10
2023-04-06T00:31:29.916Z,4.13
2023-04-06T00:34:00.412Z,4.16
2023-04-06T00:36:29.377Z,4.18
2023-04-06T00:38:58.521Z,4.17
2023-04-06T00:41:27.764Z,4.22
2023-04-06T00:43:56.687Z,4.34
2023-04-06T00:46:26.077Z,4.39
2023-04-06T00:48:54.873Z,4.31
2023-04-06T00:51:24.567Z,4.23
2023-04-06T00:53:53.429Z,4.13
2023-04-06T00:56:22.861Z,4.01
2023-04-06T00:58:51.770Z,3.96
2023-04-06T01:01:21.026Z,3.90
2023-04-06T01:03:51.416Z,3.86
2023-04-06T01:06:20.311Z,3.93
2023-04-06T01:08:49.421Z,3.99
2023-04-06T01:11:19.681Z,3.94
2023-04-06T01:13:48.714Z,3.88
2023-04-06T01:16:17.842Z,3.84
2023-04-06T01:18:46.724Z,3.79
2023-04-06T01:21:18.323Z,3.75
2023-04-06T01:23:50.412Z,3.71
2023-04-06T01:26:19.587Z,3.72
2023-04-06T01:28:48.609Z,3.74
2023-04-06T01:31:17.844Z,3.75
2023-04-06T01:33:47.573Z,3.74
2023-04-06T01:36:17.224Z,3.71
2023-04-06T01:38:46.838Z,3.68
2023-04-06T01:41:15.845Z,3.60
2023-04-06T01:43:45.734Z,3.50
2023-04-06T01:46:15.013Z,3.42
2023-04-06T01:48:44.605Z,3.39
2023-04-06T01:51:13.271Z,3.37
2023-04-06T01:53:42.486Z,3.35
2023-04-06T01:56:11.779Z,3.31
2023-04-06T01:58:40.812Z,3.29
2023-04-06T02:01:09.928Z,3.27
2023-04-06T02:03:38.866Z,3.24
2023-04-06T02:06:08.356Z,3.28
2023-04-06T02:08:37.113Z,3.27
2023-04-06T02:11:06.456Z,3.24
2023-04-06T02:13:35.316Z,3.20
2023-04-06T02:16:04.385Z,3.18
2023-04-06T02:18:33.651Z,3.16
2023-04-06T02:21:02.826Z,3.20
2023-04-06T02:23:31.943Z,3.24
2023-04-06T02:26:00.796Z,3.21
2023-04-06T02:28:29.945Z,3.14
2023-04-06T02:30:59.832Z,3.11
2023-04-06T02:33:29.147Z,3.07
2023-04-06T02:35:58.028Z,3.03
2023-04-06T02:38:26.903Z,3.03
2023-04-06T02:40:55.817Z,3.07
2023-04-06T02:43:24.700Z,3.05
2023-04-06T02:45:53.841Z,2.99
2023-04-06T02:48:22.730Z,2.95
2023-04-06T02:50:51.751Z,2.90
2023-04-06T02:53:20.865Z,2.85
2023-04-06T02:55:49.883Z,2.85
2023-04-06T02:58:18.569Z,2.84
2023-04-06T03:00:47.407Z,2.82
2023-04-06T03:03:16.721Z,2.75
2023-04-06T03:05:46.225Z,2.67
2023-04-06T03:08:15.239Z,2.62
2023-04-06T03:10:44.136Z,2.60
2023-04-06T03:13:13.043Z,2.59
2023-04-06T03:15:42.185Z,2.62
2023-04-06T03:18:11.203Z,2.57
2023-04-06T03:20:40.202Z,2.53
2023-04-06T03:23:09.153Z,2.53
2023-04-06T03:25:38.315Z,2.58
2023-04-06T03:28:07.699Z,2.70
2023-04-06T03:30:36.956Z,2.76
2023-04-06T03:33:06.215Z,2.75
2023-04-06T03:35:35.271Z,2.67
2023-04-06T03:38:07.259Z,2.57
2023-04-06T03:40:36.455Z,2.47
2023-04-06T03:43:06.872Z,2.38
2023-04-06T03:45:37.864Z,2.36
2023-04-06T03:48:07.876Z,2.36
2023-04-06T03:50:37.478Z,2.35
2023-04-06T03:53:07.086Z,2.30
2023-04-06T03:55:36.104Z,2.21
2023-04-06T03:58:06.100Z,2.16
2023-04-06T04:00:35.611Z,2.19
2023-04-06T04:03:04.717Z,2.24
2023-04-06T04:05:33.654Z,2.28
2023-04-06T04:08:02.712Z,2.31
2023-04-06T04:10:31.772Z,2.36
2023-04-06T04:13:02.102Z,2.36
2023-04-06T04:15:31.407Z,2.30
2023-04-06T04:18:00.519Z,2.26
2023-04-06T04:20:29.880Z,2.22
2023-04-06T04:22:59.046Z,2.13
2023-04-06T04:25:28.004Z,2.10
2023-04-06T04:27:57.117Z,2.08
2023-04-06T04:30:26.728Z,2.14
2023-04-06T04:32:56.384Z,2.17
2023-04-06T04:35:25.517Z,2.17
2023-04-06T04:37:54.439Z,2.18
2023-04-06T04:40:23.326Z,2.18
2023-04-06T04:42:52.712Z,2.20
2023-04-06T04:45:21.336Z,2.23
2023-04-06T04:47:50.372Z,2.22
2023-04-06T04:50:19.277Z,2.26
2023-04-06T04:52:48.534Z,2.30
2023-04-06T04:55:17.461Z,2.31
2023-04-06T04:57:46.523Z,2.36
2023-04-06T05:00:16.058Z,2.35
2023-04-06T05:02:45.888Z,2.39
2023-04-06T05:05:15.690Z,2.43
2023-04-06T05:07:45.031Z,2.42
2023-04-06T05:10:14.090Z,2.39
2023-04-06T05:12:42.966Z,2.35
2023-04-06T05:15:12.206Z,2.32
2023-04-06T05:17:41.582Z,2.24
2023-04-06T05:20:12.188Z,2.26
2023-04-06T05:22:41.094Z,2.38
2023-04-06T05:25:10.549Z,2.52
2023-04-06T05:27:39.828Z,2.65
2023-04-06T05:30:10.607Z,2.74
2023-04-06T05:32:40.298Z,2.75
2023-04-06T05:35:09.831Z,2.79
2023-04-06T05:37:39.320Z,2.81
2023-04-06T05:40:09.690Z,2.89
2023-04-06T05:42:40.826Z,2.96
2023-04-06T05:45:20.825Z,3.06
2023-04-06T05:47:50.293Z,3.09
2023-04-06T05:50:19.776Z,3.24
2023-04-06T05:52:49.186Z,3.36
2023-04-06T05:55:18.424Z,3.44
2023-04-06T05:57:47.863Z,3.48
2023-04-06T06:00:17.822Z,3.54
2023-04-06T06:02:47.137Z,3.63
2023-04-06T06:05:17.052Z,3.72
2023-04-06T06:07:48.238Z,3.89
2023-04-06T06:10:18.451Z,4.22
2023-04-06T06:12:48.023Z,4.70
2023-04-06T06:15:19.221Z,5.35
2023-04-06T06:17:49.670Z,5.99
2023-04-06T06:20:20.773Z,6.63
2023-04-06T06:22:51.018Z,7.16
2023-04-06T06:25:19.996Z,7.76
2023-04-06T06:27:49.418Z,8.32
2023-04-06T06:30:20.362Z,8.80
2023-04-06T06:32:52.467Z,9.32
2023-04-06T06:35:21.561Z,9.74
2023-04-06T06:37:51.072Z,10.18
2023-04-06T06:40:21.545Z,10.63
2023-04-06T06:42:50.383Z,11.01
2023-04-06T06:45:19.807Z,11.44
2023-04-06T06:47:49.552Z,11.83
2023-04-06T06:50:20.296Z,12.19
2023-04-06T06:52:50.294Z,12.60
2023-04-06T06:55:20.739Z,12.98
2023-04-06T06:57:49.812Z,13.14
2023-04-06T07:00:19.261Z,13.37
2023-04-06T07:02:51.392Z,13.42
2023-04-06T07:05:28.376Z,13.26
2023-04-06T07:07:58.028Z,13.71
2023-04-06T07:10:29.604Z,14.15
2023-04-06T07:12:59.370Z,14.52
2023-04-06T07:15:28.815Z,14.78
2023-04-06T07:17:58.075Z,15.26
2023-04-06T07:20:27.074Z,15.56
2023-04-06T07:22:56.263Z,15.74
2023-04-06T07:25:26.116Z,16.19
2023-04-06T07:27:58.495Z,16.25
2023-04-06T07:30:32.001Z,16.47
2023-04-06T07:33:01.882Z,16.90
2023-04-06T07:35:31.711Z,17.20
2023-04-06T07:38:01.676Z,17.84
2023-04-06T07:40:33.478Z,18.24
2023-04-06T07:43:04.657Z,18.65
2023-04-06T07:45:34.001Z,18.90
2023-04-06T07:48:03.115Z,19.58
2023-04-06T07:50:32.367Z,19.96
2023-04-06T07:53:03.091Z,19.98
2023-04-06T07:55:33.336Z,20.28
2023-04-06T07:58:06.204Z,20.27
2023-04-06T08:00:37.108Z,20.67
2023-04-06T08:03:07.800Z,20.90
2023-04-06T08:05:37.721Z,21.29
2023-04-06T08:08:07.383Z,21.74
2023-04-06T08:10:38.179Z,22.18
2023-04-06T08:13:09.786Z,22.62
2023-04-06T08:15:39.615Z,22.89
2023-04-06T08:18:11.524Z,23.21
2023-04-06T08:20:42.540Z,23.48
2023-04-06T08:23:12.692Z,23.99
2023-04-06T08:25:42.246Z,24.01
2023-04-06T08:28:11.965Z,24.52
2023-04-06T08:30:44.383Z,24.15
2023-04-06T08:33:14.382Z,24.71
2023-04-06T08:35:44.821Z,25.40
2023-04-06T08:38:14.679Z,25.29
2023-04-06T08:40:45.918Z,25.02
2023-04-06T08:43:15.834Z,25.67
2023-04-06T08:45:45.371Z,26.30
2023-04-06T08:48:16.405Z,26.89
2023-04-06T08:50:47.041Z,27.02
2023-04-06T08:53:18.487Z,27.32
2023-04-06T08:55:50.989Z,27.16
2023-04-06T08:58:35.134Z,26.90
2023-04-06T09:01:09.887Z,27.28
2023-04-06T09:03:42.022Z,27.18
2023-04-06T09:06:12.695Z,27.40
2023-04-06T09:08:43.601Z,27.57
2023-04-06T09:11:14.845Z,27.64
2023-04-06T09:13:56.019Z,28.06
2023-04-06T09:16:27.637Z,27.75
2023-04-06T09:19:06.848Z,28.45
2023-04-06T09:21:36.527Z,28.80
2023-04-06T09:24:06.240Z,28.90
2023-04-06T09:26:48.142Z,29.19
2023-04-06T09:29:25.781Z,28.68
2023-04-06T09:32:05.123Z,29.32
2023-04-06T09:34:41.061Z,29.66
2023-04-06T09:37:20.905Z,29.31
2023-04-06T09:39:53.070Z,29.86
2023-04-06T09:42:27.161Z,30.04
2023-04-06T09:44:56.649Z,30.36
2023-04-06T09:47:29.434Z,30.43
2023-04-06T09:50:01.169Z,30.01
2023-04-06T09:52:38.511Z,30.06
2023-04-06T09:55:10.101Z,29.68
2023-04-06T09:57:53.891Z,30.25
2023-04-06T10:00:25.062Z,29.91
2023-04-06T10:03:04.724Z,30.63
2023-04-06T10:05:43.937Z,30.50
2023-04-06T10:08:15.666Z,30.59
2023-04-06T10:10:45.886Z,30.57
2023-04-06T10:13:15.418Z,31.04
2023-04-06T10:15:45.018Z,30.99
2023-04-06T10:18:15.479Z,31.70
2023-04-06T10:21:03.821Z,31.56
2023-04-06T10:23:48.595Z,30.95
2023-04-06T10:26:22.545Z,30.89
2023-04-06T10:28:53.954Z,31.36
2023-04-06T10:31:28.863Z,31.44
2023-04-06T10:34:04.741Z,31.70
2023-04-06T10:36:35.414Z,32.17
2023-04-06T10:39:06.599Z,32.61
2023-04-06T10:41:44.543Z,32.89
2023-04-06T10:44:23.526Z,32.60
2023-04-06T10:47:02.507Z,32.70
2023-04-06T10:49:32.046Z,32.56
2023-04-06T10:52:01.502Z,32.03
2023-04-06T10:54:31.524Z,32.20
2023-04-06T10:57:00.906Z,32.29
2023-04-06T10:59:31.117Z,32.28
2023-04-06T11:02:00.796Z,32.55
2023-04-06T11:04:30.253Z,32.59
2023-04-06T11:06:59.570Z,33.13
2023-04-06T11:09:31.135Z,33.15
2023-04-06T11:12:01.101Z,33.25
2023-04-06T11:14:31.000Z,32.91
2023-04-06T11:17:00.311Z,32.97
2023-04-06T11:19:29.580Z,33.09
2023-04-06T11:22:09.200Z,32.18
2023-04-06T11:24:38.451Z,32.43
2023-04-06T11:27:09.106Z,32.89
2023-04-06T11:29:39.499Z,33.37
2023-04-06T11:32:10.501Z,33.58
2023-04-06T11:34:42.629Z,33.64
2023-04-06T11:37:13.736Z,33.33
2023-04-06T11:39:49.763Z,33.45
2023-04-06T11:42:31.108Z,33.58
2023-04-06T11:45:01.036Z,33.92
2023-04-06T11:47:33.023Z,33.78
2023-04-06T11:50:10.903Z,33.25
2023-04-06T11:52:42.611Z,33.13
2023-04-06T11:55:13.796Z,33.62
2023-04-06T11:57:45.659Z,33.79
2023-04-06T12:00:17.004Z,34.50
2023-04-06T12:02:51.085Z,34.93
2023-04-06T12:05:21.037Z,34.88
2023-04-06T12:07:51.218Z,34.62
2023-04-06T12:10:21.913Z,34.07
2023-04-06T12:12:51.553Z,33.93
2023-04-06T12:15:21.040Z,33.80
2023-04-06T12:17:51.352Z,33.71
2023-04-06T12:20:25.884Z,33.86
2023-04-06T12:22:56.542Z,34.13
2023-04-06T12:25:28.339Z,33.54
2023-04-06T12:27:58.207Z,33.55
2023-04-06T12:30:27.517Z,33.71
2023-04-06T12:32:56.842Z,34.20
2023-04-06T12:35:26.544Z,33.97
2023-04-06T12:37:55.625Z,33.68
2023-04-06T12:40:24.839Z,33.23
2023-04-06T12:42:53.910Z,32.95
2023-04-06T12:45:23.407Z,32.50
2023-04-06T12:47:53.222Z,32.54
2023-04-06T12:50:22.619Z,32.20
2023-04-06T12:52:51.949Z,32.35
2023-04-06T12:55:22.150Z,32.66
2023-04-06T12:57:51.861Z,32.75
2023-04-06T13:00:22.063Z,33.19
2023-04-06T13:02:51.663Z,33.32
2023-04-06T13:05:21.283Z,33.40
2023-04-06T13:07:50.794Z,32.99
2023-04-06T13:10:19.686Z,33.29
2023-04-06T13:12:49.067Z,33.33
2023-04-06T13:15:18.616Z,33.24
2023-04-06T13:17:47.916Z,33.31
2023-04-06T13:20:17.066Z,33.21
2023-04-06T13:22:46.363Z,33.00
2023-04-06T13:25:15.431Z,32.45
2023-04-06T13:27:47.572Z,31.64
2023-04-06T13:30:18.197Z,31.21
2023-04-06T13:32:47.227Z,30.51
2023-04-06T13:35:16.496Z,29.70
2023-04-06T13:37:46.147Z,30.09
2023-04-06T13:40:15.093Z,29.10
2023-04-06T13:42:46.484Z,28.95
2023-04-06T13:45:16.059Z,29.24
2023-04-06T13:47:45.446Z,29.66
2023-04-06T13:50:16.867Z,29.06
2023-04-06T13:52:46.416Z,28.99
2023-04-06T13:55:16.122Z,29.21
2023-04-06T13:57:45.002Z,29.13
2023-04-06T14:00:16.160Z,29.50
2023-04-06T14:02:45.644Z,29.27
2023-04-06T14:05:15.099Z,29.43
2023-04-06T14:07:44.093Z,29.64
2023-04-06T14:10:15.074Z,30.07
2023-04-06T14:12:46.079Z,29.47
2023-04-06T14:15:15.802Z,29.13
2023-04-06T14:17:45.258Z,29.21
2023-04-06T14:20:16.254Z,29.20
2023-04-06T14:22:46.094Z,28.97
2023-04-06T14:25:15.105Z,28.73
2023-04-06T14:27:45.500Z,28.69
2023-04-06T14:30:15.267Z,28.84
2023-04-06T14:32:44.330Z,28.65
2023-04-06T14:35:14.065Z,28.84
2023-04-06T14:37:43.261Z,28.61
2023-04-06T14:40:12.869Z,28.41
2023-04-06T14:42:42.293Z,28.19
2023-04-06T14:45:11.379Z,28.15
2023-04-06T14:47:40.642Z,28.02
2023-04-06T14:50:10.435Z,27.90
2023-04-06T14:52:40.156Z,27.68
2023-04-06T14:55:09.290Z,27.79
2023-04-06T14:57:38.400Z,27.39
2023-04-06T15:00:09.453Z,26.95
2023-04-06T15:02:39.532Z,26.64
2023-04-06T15:05:10.792Z,26.91
2023-04-06T15:07:40.103Z,26.58
2023-04-06T15:10:12.098Z,26.32
2023-04-06T15:12:41.553Z,26.02
2023-04-06T15:15:11.185Z,25.92
2023-04-06T15:17:41.043Z,25.53
2023-04-06T15:20:10.289Z,25.07
2023-04-06T15:22:39.104Z,24.98
2023-04-06T15:25:08.903Z,24.87
2023-04-06T15:27:37.988Z,24.77
2023-04-06T15:30:08.100Z,24.94
2023-04-06T15:32:36.890Z,25.06
2023-04-06T15:35:14.084Z,25.04
2023-04-06T15:37:43.378Z,24.99
2023-04-06T15:40:14.882Z,24.90
2023-04-06T15:42:44.407Z,24.96
2023-04-06T15:45:13.792Z,25.03
2023-04-06T15:47:44.668Z,24.86
2023-04-06T15:50:14.962Z,24.76
2023-04-06T15:52:45.153Z,24.57
2023-04-06T15:55:15.210Z,24.45
2023-04-06T15:57:45.046Z,24.30
2023-04-06T16:00:15.252Z,24.40
2023-04-06T16:02:44.619Z,24.28
2023-04-06T16:05:13.864Z,24.05
2023-04-06T16:07:43.468Z,23.82
2023-04-06T16:10:12.848Z,23.53
2023-04-06T16:12:42.782Z,23.17
2023-04-06T16:15:12.891Z,22.81
2023-04-06T16:17:44.267Z,22.47
2023-04-06T16:20:16.163Z,22.20
2023-04-06T16:22:45.242Z,21.84
2023-04-06T16:25:14.297Z,21.73
2023-04-06T16:27:43.868Z,21.55
2023-04-06T16:30:13.710Z,21.36
2023-04-06T16:32:44.141Z,21.09
2023-04-06T16:35:13.801Z,20.76
2023-04-06T16:37:43.394Z,20.64
2023-04-06T16:40:13.412Z,20.56
2023-04-06T16:42:46.647Z,20.32
2023-04-06T16:45:16.279Z,20.11
2023-04-06T16:47:45.316Z,19.95
2023-04-06T16:50:14.475Z,19.80
2023-04-06T16:52:43.661Z,19.67
2023-04-06T16:55:12.501Z,19.45
2023-04-06T16:57:41.444Z,19.28
2023-04-06T17:00:11.025Z,19.13
2023-04-06T17:02:40.169Z,19.00
2023-04-06T17:05:09.743Z,18.88
2023-04-06T17:07:38.861Z,18.75
2023-04-06T17:10:08.356Z,18.62
2023-04-06T17:12:37.301Z,18.48
2023-04-06T17:15:06.774Z,18.34
2023-04-06T17:17:36.130Z,18.19
2023-04-06T17:20:06.594Z,18.06
2023-04-06T17:22:36.499Z,17.98
2023-04-06T17:25:08.470Z,17.89
2023-04-06T17:27:37.816Z,17.77
2023-04-06T17:30:09.307Z,17.62
2023-04-06T17:32:38.859Z,17.48
2023-04-06T17:35:09.287Z,17.33
2023-04-06T17:37:39.860Z,17.20
2023-04-06T17:40:10.032Z,17.08
2023-04-06T17:42:40.386Z,16.88
2023-04-06T17:45:10.672Z,16.69
2023-04-06T17:47:41.915Z,16.53
2023-04-06T17:50:13.401Z,16.30
2023-04-06T17:55:23.799Z,15.85
2023-04-06T17:57:53.332Z,15.55
2023-04-06T18:00:24.747Z,15.34
2023-04-06T18:02:55.126Z,15.11
2023-04-06T18:05:27.762Z,14.90
2023-04-06T18:07:59.176Z,14.79
2023-04-06T18:10:28.186Z,14.68
2023-04-06T18:12:58.995Z,14.52
2023-04-06T18:15:28.217Z,14.39
2023-04-06T18:17:58.515Z,14.28
2023-04-06T18:20:28.362Z,14.16
2023-04-06T18:22:58.615Z,14.03
2023-04-06T18:25:28.024Z,13.91
2023-04-06T18:27:57.037Z,13.81
2023-04-06T18:30:26.560Z,13.77
2023-04-06T18:32:56.565Z,13.68
2023-04-06T18:35:26.074Z,13.62
2023-04-06T18:37:56.133Z,13.46
2023-04-06T18:40:39.289Z,13.22
2023-04-06T18:43:09.730Z,12.89
2023-04-06T18:45:39.394Z,12.76
2023-04-06T18:48:08.971Z,12.67
2023-04-06T18:50:37.936Z,12.55
2023-04-06T18:53:07.366Z,12.43
2023-04-06T18:55:37.829Z,12.37
2023-04-06T18:58:07.210Z,12.32
2023-04-06T19:00:36.577Z,12.26
2023-04-06T19:03:05.638Z,12.18
2023-04-06T19:05:34.926Z,12.08
2023-04-06T19:08:04.180Z,11.98
2023-04-06T19:10:35.440Z,11.90
2023-04-06T19:13:05.742Z,11.76
2023-04-06T19:15:36.528Z,11.71
2023-04-06T19:18:07.420Z,11.63
2023-04-06T19:20:37.649Z,11.54
2023-04-06T19:23:07.121Z,11.44
2023-04-06T19:25:36.835Z,11.44
2023-04-06T19:28:06.369Z,11.38
2023-04-06T19:30:35.976Z,11.35
2023-04-06T19:33:06.681Z,11.26
2023-04-06T19:35:36.895Z,11.18
2023-04-06T19:38:08.415Z,11.12
2023-04-06T19:40:39.342Z,11.06
2023-04-06T19:43:09.486Z,11.03
2023-04-06T19:45:38.965Z,10.96
2023-04-06T19:48:08.443Z,10.88
2023-04-06T19:50:38.276Z,10.82
2023-04-06T19:53:08.790Z,10.72
2023-04-06T19:55:39.640Z,10.62
2023-04-06T19:58:09.098Z,10.53
2023-04-06T20:00:40.637Z,10.45
2023-04-06T20:03:12.008Z,10.38
2023-04-06T20:05:42.268Z,10.30
2023-04-06T20:08:12.684Z,10.29
2023-04-06T20:10:42.320Z,10.19
2023-04-06T20:13:13.251Z,10.06
2023-04-06T20:15:43.957Z,10.00
2023-04-06T20:18:13.919Z,9.95
2023-04-06T20:20:43.230Z,9.94
2023-04-06T20:23:14.045Z,9.88
2023-04-06T20:25:44.432Z,9.90
2023-04-06T20:28:14.859Z,9.90
2023-04-06T20:30:46.082Z,9.70
2023-04-06T20:33:16.321Z,9.52
2023-04-06T20:35:47.306Z,9.39
2023-04-06T20:38:20.499Z,9.34
2023-04-06T20:40:54.097Z,9.26
2023-04-06T20:43:26.079Z,9.21
2023-04-06T20:45:59.996Z,9.18
2023-04-06T20:48:33.542Z,9.14
2023-04-06T20:51:05.615Z,9.15
2023-04-06T20:53:35.410Z,9.11
2023-04-06T20:56:05.377Z,9.11
2023-04-06T20:58:34.794Z,9.12
2023-04-06T21:01:04.052Z,9.08
2023-04-06T21:03:33.541Z,9.08
2023-04-06T21:06:02.850Z,9.07
2023-04-06T21:08:32.344Z,9.06
2023-04-06T21:11:02.485Z,8.94
2023-04-06T21:13:31.869Z,8.88
2023-04-06T21:16:02.100Z,8.82
2023-04-06T21:18:32.985Z,8.71
2023-04-06T21:21:02.552Z,8.61
2023-04-06T21:23:31.676Z,8.50
2023-04-06T21:26:02.579Z,8.44
2023-04-06T21:28:32.980Z,8.37
2023-04-06T21:31:08.979Z,8.31
2023-04-06T21:33:38.500Z,8.29
2023-04-06T21:36:08.926Z,8.25
2023-04-06T21:38:38.313Z,8.20
2023-04-06T21:41:07.644Z,8.10
2023-04-06T21:43:38.158Z,7.99
2023-04-06T21:46:07.745Z,7.91
2023-04-06T21:48:37.293Z,7.94
2023-04-06T21:51:06.594Z,7.94
2023-04-06T21:53:35.714Z,7.91
2023-04-06T21:56:05.639Z,7.91
2023-04-06T21:58:34.763Z,7.94
2023-04-06T22:01:04.309Z,7.91
2023-04-06T22:03:34.475Z,7.81
2023-04-06T22:06:07.471Z,7.72
2023-04-06T22:08:36.584Z,7.61
2023-04-06T22:11:10.377Z,7.58
2023-04-06T22:13:39.754Z,7.49
2023-04-06T22:16:08.841Z,7.25
2023-04-06T22:18:39.226Z,7.13
2023-04-06T22:21:09.286Z,7.02
2023-04-06T22:23:42.699Z,6.96
2023-04-06T22:26:12.573Z,6.86
2023-04-06T22:28:42.835Z,6.84
2023-04-06T22:31:11.994Z,6.85
2023-04-06T22:33:42.144Z,6.83
2023-04-06T22:36:11.641Z,6.77
2023-04-06T22:38:40.635Z,6.81
2023-04-06T22:41:09.805Z,6.85
2023-04-06T22:43:38.616Z,6.87
2023-04-06T22:46:07.445Z,6.83
2023-04-06T22:48:36.394Z,6.76
2023-04-06T22:51:05.843Z,6.70
2023-04-06T22:53:36.028Z,6.69
2023-04-06T22:56:06.003Z,6.58
2023-04-06T22:58:34.683Z,6.38
2023-04-06T23:01:05.112Z,6.26
2023-04-06T23:03:34.548Z,6.08
2023-04-06T23:06:04.117Z,6.04
2023-04-06T23:08:33.035Z,6.03
2023-04-06T23:11:02.341Z,6.00
2023-04-06T23:13:33.046Z,5.95
2023-04-06T23:16:02.685Z,5.95
2023-04-06T23:18:31.934Z,5.97
2023-04-06T23:21:01.326Z,5.96
2023-04-06T23:23:31.078Z,6.01
2023-04-06T23:25:59.847Z,6.09
2023-04-06T23:28:29.262Z,6.19
2023-04-06T23:30:58.304Z,6.21
2023-04-06T23:33:28.766Z,6.17
2023-04-06T23:35:57.727Z,6.16
2023-04-06T23:38:27.070Z,6.17
2023-04-06T23:40:56.332Z,6.16
2023-04-06T23:43:25.521Z,6.11
2023-04-06T23:45:54.341Z,6.07
2023-04-06T23:48:23.115Z,6.06
2023-04-06T23:50:52.961Z,6.05
2023-04-06T23:53:21.920Z,6.03
2023-04-06T23:55:50.853Z,5.96
2023-04-06T23:58:19.905Z,5.93
